Las Vegas, NV

09:29 PM PST am 27. Februar 2017 (GMT -0800)
Downtown Las Vegas | | Change Station

Höhe 2014 ft 36.17 °N, 115.14 °W | Updated 30 seconds ago

Wolkig
Wolkig
53.4 °F
gefühlte 53.4 °F
N
1.0
Wind Wechselnd Wind aus West-Nordwest

Heute
Max. -- | schwach -- °F
--% Regenrisiko
Gestern
Max. -- | schwach -- °F
Precip. -- inch
Druck 29.77 inch
Sichtweite 10.0 Meilen
Wolken Few 8000 ft
Taupunkt 38 °F
Feuchtigkeit 58%
Regen 0.00 inch
Schneehöhe Nicht verfügbar..
6:12 AM 5:33 PM
Erstes Viertel, 3% visible
METAR KVGT 280453Z AUTO 32009KT 10SM FEW080 11/M01 A2973 RMK AO2 SLP081 T01111011
Druck 29.77 inch
Sichtweite 10.0 Meilen
Wolken Few 8000 ft
Taupunkt 38 °F
Feuchtigkeit 58%
Regen 0.00 inch
Schneehöhe Nicht verfügbar..
6:12 AM 5:33 PM
Erstes Viertel, 3% visible
METAR KVGT 280453Z AUTO 32009KT 10SM FEW080 11/M01 A2973 RMK AO2 SLP081 T01111011

Get Your Daily Forecast Email!

Thanks for signing up!

Be on the lookout for a verification email in your inbox.

You'll start receiving the daily forecast at 8 AM.

×

10-Day Weather Forecast

Almanac

Astronomie

Feb. 27, 2017 Aufgang Untergang
Genaue Zeit
Bürgerliche Dämmerung
Nautische Dämmerung
Astronomische Dämmerung
Mond
Länge des sichtbaren Lichts
Tageslänge
Tomorrow will be .
, % of the Moon is Illuminated

Heutige Rekorde

State Highs State Lows

Community

WunderPhotos

Upload Photos

1,962,540 Fotos hochgeladen!

WunderBlog® & News

Nearby

Luftqualität

  Luftqualität LQ Index Schadstoff
Not available.

Schneehöhe

Station Depth Höhe

Erdbebenaktivität

Stadt Distance Mag. Time & Date
Minimum magnitude displayed is 2.5.

küstennahe Wassertemperaturen

Ort Temperatur

Stations

Wetterstationen in der Umgebung

Stationsstandort Temp. Windchill Taupunkt Feuchtigkeit Wind Precip. Höhe Aktualisiert Art
                   

Watches & Warnings

There are currently no watches in effect.